createdAt,value
2019-01-08T00:01:13.378Z,8.00
2019-01-08T00:03:42.427Z,8.10
2019-01-08T00:06:11.376Z,8.10
2019-01-08T00:08:40.283Z,8.00
2019-01-08T00:11:09.412Z,8.10
2019-01-08T00:13:38.333Z,8.10
2019-01-08T00:16:07.383Z,8.10
2019-01-08T00:18:36.330Z,8.00
2019-01-08T00:21:05.326Z,7.90
2019-01-08T00:23:34.316Z,7.80
2019-01-08T00:26:03.316Z,7.60
2019-01-08T00:28:32.363Z,7.60
2019-01-08T00:31:01.425Z,7.60
2019-01-08T00:33:30.540Z,7.50
2019-01-08T00:35:59.456Z,7.50
2019-01-08T00:38:28.408Z,7.40
2019-01-08T00:40:57.411Z,7.40
2019-01-08T00:43:26.277Z,7.40
2019-01-08T00:45:55.120Z,7.30
2019-01-08T00:48:25.180Z,7.30
2019-01-08T00:50:54.124Z,7.20
2019-01-08T00:53:22.992Z,7.20
2019-01-08T00:55:51.942Z,7.20
2019-01-08T00:58:20.877Z,7.10
2019-01-08T01:00:49.948Z,7.20
2019-01-08T01:03:18.893Z,7.10
2019-01-08T01:05:47.884Z,7.00
2019-01-08T01:08:16.788Z,7.00
2019-01-08T01:10:45.849Z,6.80
2019-01-08T01:13:15.550Z,6.80
2019-01-08T01:15:44.856Z,6.80
2019-01-08T01:18:13.788Z,6.80
2019-01-08T01:20:42.840Z,6.70
2019-01-08T01:23:11.730Z,6.70
2019-01-08T01:25:40.679Z,6.70
2019-01-08T01:28:09.636Z,6.60
2019-01-08T01:30:38.573Z,6.60
2019-01-08T01:33:07.641Z,6.60
2019-01-08T01:35:36.508Z,6.60
2019-01-08T01:38:05.509Z,6.60
2019-01-08T01:40:34.532Z,6.60
2019-01-08T01:43:03.384Z,6.60
2019-01-08T01:45:32.300Z,6.60
2019-01-08T01:48:01.264Z,6.60
2019-01-08T01:50:30.269Z,6.60
2019-01-08T01:52:59.417Z,6.70
2019-01-08T01:55:28.364Z,6.60
2019-01-08T01:57:57.374Z,6.60
2019-01-08T02:00:26.352Z,6.60
2019-01-08T02:02:55.231Z,6.60
2019-01-08T02:05:24.068Z,6.60
2019-01-08T02:07:52.989Z,6.60
2019-01-08T02:10:21.874Z,6.60
2019-01-08T02:12:50.823Z,6.50
2019-01-08T02:15:19.861Z,6.50
2019-01-08T02:17:48.740Z,6.50
2019-01-08T02:20:17.709Z,6.50
2019-01-08T02:23:02.484Z,6.50
2019-01-08T02:25:31.409Z,6.50
2019-01-08T02:28:00.364Z,6.50
2019-01-08T02:30:29.391Z,6.60
2019-01-08T02:32:58.375Z,6.60
2019-01-08T02:35:27.375Z,6.60
2019-01-08T02:37:56.388Z,6.60
2019-01-08T02:40:25.324Z,6.60
2019-01-08T02:42:55.787Z,6.70
2019-01-08T02:45:24.729Z,6.70
2019-01-08T02:47:53.762Z,6.70
2019-01-08T02:50:22.856Z,6.70
2019-01-08T02:52:51.730Z,6.70
2019-01-08T02:55:20.744Z,6.70
2019-01-08T02:57:49.651Z,6.60
2019-01-08T03:00:18.666Z,6.70
2019-01-08T03:02:47.580Z,6.70
2019-01-08T03:05:16.524Z,6.70
2019-01-08T03:07:45.477Z,6.70
2019-01-08T03:10:14.496Z,6.60
2019-01-08T03:12:43.512Z,6.60
2019-01-08T03:15:12.493Z,6.60
2019-01-08T03:17:41.472Z,6.60
2019-01-08T03:20:10.486Z,6.60
2019-01-08T03:22:39.416Z,6.60
2019-01-08T03:25:08.423Z,6.60
2019-01-08T03:27:37.361Z,6.60
2019-01-08T03:30:06.630Z,6.60
2019-01-08T03:32:35.649Z,6.60
2019-01-08T03:35:04.973Z,6.60
2019-01-08T03:37:33.980Z,6.60
2019-01-08T03:40:02.986Z,6.50
2019-01-08T03:42:31.937Z,6.50
2019-01-08T03:45:00.960Z,6.50
2019-01-08T03:47:29.836Z,6.50
2019-01-08T03:49:58.840Z,6.50
2019-01-08T03:52:27.856Z,6.40
2019-01-08T03:54:56.775Z,6.30
2019-01-08T03:57:25.701Z,6.40
2019-01-08T03:59:54.580Z,6.40
2019-01-08T04:02:23.592Z,6.40
2019-01-08T04:04:52.585Z,6.30
2019-01-08T04:07:21.598Z,6.30
2019-01-08T04:09:50.517Z,6.30
2019-01-08T04:12:19.488Z,6.30
2019-01-08T04:14:48.418Z,6.30
2019-01-08T04:17:17.428Z,6.40
2019-01-08T04:19:46.367Z,6.40
2019-01-08T04:22:15.423Z,6.40
2019-01-08T04:24:44.452Z,6.40
2019-01-08T04:27:13.452Z,6.40
2019-01-08T04:29:50.204Z,6.40
2019-01-08T04:32:13.063Z,6.50
2019-01-08T04:34:42.012Z,6.40
2019-01-08T04:37:10.992Z,6.50
2019-01-08T04:39:40.001Z,6.50
2019-01-08T04:42:08.941Z,6.50
2019-01-08T04:44:37.816Z,6.50
2019-01-08T04:47:06.852Z,6.50
2019-01-08T04:49:35.825Z,6.50
2019-01-08T04:52:04.846Z,6.50
2019-01-08T04:54:34.044Z,6.40
2019-01-08T04:57:03.129Z,6.40
2019-01-08T04:59:32.024Z,6.40
2019-01-08T05:02:01.044Z,6.50
2019-01-08T05:04:30.136Z,6.50
2019-01-08T05:06:59.077Z,6.40
2019-01-08T05:09:28.109Z,6.40
2019-01-08T05:11:57.406Z,6.50
2019-01-08T05:14:26.444Z,6.50
2019-01-08T05:16:55.401Z,6.60
2019-01-08T05:19:26.645Z,6.60
2019-01-08T05:21:55.684Z,6.70
2019-01-08T05:24:24.583Z,6.70
2019-01-08T05:26:53.571Z,6.60
2019-01-08T05:29:22.575Z,6.60
2019-01-08T05:31:51.613Z,6.60
2019-01-08T05:34:20.488Z,6.60
2019-01-08T05:36:49.515Z,6.50
2019-01-08T05:39:18.527Z,6.50
2019-01-08T05:41:47.539Z,6.40
2019-01-08T05:44:16.429Z,6.20
2019-01-08T05:46:45.260Z,6.00
2019-01-08T05:49:14.227Z,6.00
2019-01-08T05:51:43.220Z,5.90
2019-01-08T05:54:12.315Z,5.80
2019-01-08T05:56:41.345Z,5.80
2019-01-08T05:59:15.228Z,5.80
2019-01-08T06:01:44.506Z,5.80
2019-01-08T06:04:13.534Z,5.90
2019-01-08T06:06:42.565Z,5.80
2019-01-08T06:09:11.511Z,5.80
2019-01-08T06:11:40.504Z,5.80
2019-01-08T06:14:09.581Z,5.70
2019-01-08T06:16:38.585Z,5.80
2019-01-08T06:19:07.661Z,5.80
2019-01-08T06:21:36.661Z,5.80
2019-01-08T06:24:05.556Z,5.90
2019-01-08T06:26:34.570Z,6.00
2019-01-08T06:29:03.538Z,6.00
2019-01-08T06:31:33.141Z,6.00
2019-01-08T06:34:02.089Z,6.00
2019-01-08T06:36:31.112Z,6.00
2019-01-08T06:39:00.021Z,5.90
2019-01-08T06:41:29.066Z,5.90
2019-01-08T06:43:57.970Z,5.90
2019-01-08T06:46:26.876Z,5.80
2019-01-08T06:48:56.240Z,5.80
2019-01-08T06:51:25.217Z,5.80
2019-01-08T06:53:54.100Z,5.90
2019-01-08T06:56:23.009Z,5.90
2019-01-08T06:58:51.921Z,6.00
2019-01-08T07:01:21.103Z,6.00
2019-01-08T07:03:49.963Z,6.00
2019-01-08T07:06:18.976Z,6.00
2019-01-08T07:08:48.024Z,6.00
2019-01-08T07:11:16.981Z,6.10
2019-01-08T07:13:45.842Z,6.00
2019-01-08T07:16:14.787Z,6.10
2019-01-08T07:18:44.016Z,6.10
2019-01-08T07:21:12.975Z,6.10
2019-01-08T07:23:42.083Z,6.10
2019-01-08T07:26:11.085Z,6.10
2019-01-08T07:28:40.090Z,6.10
2019-01-08T07:31:09.060Z,6.10
2019-01-08T07:33:38.000Z,6.10
2019-01-08T07:36:07.012Z,6.10
2019-01-08T07:38:35.980Z,6.10
2019-01-08T07:41:05.823Z,6.10
2019-01-08T07:43:34.736Z,6.10
2019-01-08T07:46:03.728Z,6.10
2019-01-08T07:48:32.657Z,6.20
2019-01-08T07:51:01.685Z,6.20
2019-01-08T07:53:30.717Z,6.20
2019-01-08T07:55:59.916Z,6.20
2019-01-08T07:58:28.900Z,6.20
2019-01-08T08:00:57.907Z,6.20
2019-01-08T08:03:26.820Z,6.20
2019-01-08T08:05:55.683Z,6.20
2019-01-08T08:08:24.640Z,6.20
2019-01-08T08:10:53.496Z,6.30
2019-01-08T08:13:22.461Z,6.20
2019-01-08T08:15:51.421Z,6.20
2019-01-08T08:18:20.444Z,6.20
2019-01-08T08:20:49.368Z,6.20
2019-01-08T08:23:18.307Z,6.20
2019-01-08T08:25:47.444Z,6.20
2019-01-08T08:28:16.308Z,6.20
2019-01-08T08:30:45.224Z,6.20
2019-01-08T08:33:14.220Z,6.20
2019-01-08T08:35:43.216Z,6.20
2019-01-08T08:38:12.285Z,6.20
2019-01-08T08:40:41.261Z,6.20
2019-01-08T08:43:10.225Z,6.20
2019-01-08T08:45:39.082Z,6.20
2019-01-08T08:48:07.952Z,6.20
2019-01-08T08:50:36.878Z,6.20
2019-01-08T08:53:05.857Z,6.10
2019-01-08T08:55:34.807Z,6.20
2019-01-08T08:58:03.854Z,6.10
2019-01-08T09:00:32.913Z,6.10
2019-01-08T09:03:01.860Z,6.00
2019-01-08T09:05:30.805Z,6.10
2019-01-08T09:07:59.712Z,6.10
2019-01-08T09:10:28.740Z,6.10
2019-01-08T09:12:57.727Z,6.00
2019-01-08T09:15:26.676Z,6.00
2019-01-08T09:17:55.728Z,6.00
2019-01-08T09:20:25.150Z,5.90
2019-01-08T09:22:54.096Z,5.90
2019-01-08T09:25:23.045Z,5.90
2019-01-08T09:27:52.002Z,5.80
2019-01-08T09:30:21.058Z,5.80
2019-01-08T09:32:50.113Z,5.80
2019-01-08T09:35:19.121Z,5.80
2019-01-08T09:37:48.000Z,5.70
2019-01-08T09:40:16.928Z,5.70
2019-01-08T09:42:45.990Z,5.80
2019-01-08T09:45:14.984Z,5.80
2019-01-08T09:47:43.976Z,5.70
2019-01-08T09:50:13.089Z,5.70
2019-01-08T09:52:42.137Z,5.70
2019-01-08T09:55:11.219Z,5.70
2019-01-08T09:57:40.231Z,5.70
2019-01-08T10:00:09.740Z,5.80
2019-01-08T10:02:38.656Z,5.80
2019-01-08T10:05:07.714Z,5.80
2019-01-08T10:07:36.748Z,5.90
2019-01-08T10:10:06.369Z,5.90
2019-01-08T10:13:03.676Z,5.90
2019-01-08T10:15:33.040Z,6.00
2019-01-08T10:18:02.107Z,6.00
2019-01-08T10:20:31.218Z,6.10
2019-01-08T10:23:00.297Z,6.20
2019-01-08T10:25:29.308Z,6.20
2019-01-08T10:27:58.254Z,6.20
2019-01-08T10:30:27.323Z,6.10
2019-01-08T10:32:56.297Z,6.10
2019-01-08T10:35:25.278Z,6.10
2019-01-08T10:37:54.198Z,6.10
2019-01-08T10:40:23.187Z,6.10
2019-01-08T10:42:52.250Z,6.10
2019-01-08T10:45:21.246Z,6.10
2019-01-08T10:47:50.185Z,6.20
2019-01-08T10:50:19.188Z,6.20
2019-01-08T10:52:55.220Z,6.20
2019-01-08T10:55:24.269Z,6.20
2019-01-08T10:57:53.208Z,6.20
2019-01-08T11:00:22.217Z,6.20
2019-01-08T11:02:51.552Z,6.30
2019-01-08T11:05:20.633Z,6.20
2019-01-08T11:07:49.549Z,6.30
2019-01-08T11:10:18.603Z,6.30
2019-01-08T11:12:47.684Z,6.30
2019-01-08T11:15:16.688Z,6.30
2019-01-08T11:17:45.573Z,6.40
2019-01-08T11:20:14.733Z,6.50
2019-01-08T11:22:43.678Z,6.50
2019-01-08T11:25:12.552Z,6.50
2019-01-08T11:27:41.600Z,6.50
2019-01-08T11:30:10.596Z,6.50
2019-01-08T11:32:39.738Z,6.60
2019-01-08T11:35:08.780Z,6.50
2019-01-08T11:37:38.063Z,6.50
2019-01-08T11:40:07.447Z,6.40
2019-01-08T11:42:36.478Z,6.20
2019-01-08T11:45:06.364Z,6.10
2019-01-08T11:47:35.745Z,6.20
2019-01-08T11:50:05.083Z,6.20
2019-01-08T11:52:34.096Z,6.30
2019-01-08T11:55:03.159Z,6.30
2019-01-08T11:57:38.952Z,6.30
2019-01-08T12:00:10.828Z,6.40
2019-01-08T12:02:47.583Z,6.50
2019-01-08T12:05:10.690Z,6.50
2019-01-08T12:07:40.175Z,6.50
2019-01-08T12:10:09.385Z,6.50
2019-01-08T12:12:38.408Z,6.60
2019-01-08T12:15:08.120Z,6.70
2019-01-08T12:17:37.901Z,6.80
2019-01-08T12:20:09.294Z,6.80
2019-01-08T12:22:40.894Z,6.80
2019-01-08T12:25:09.221Z,6.80
2019-01-08T12:27:38.576Z,6.90
2019-01-08T12:30:08.864Z,7.00
2019-01-08T12:32:37.909Z,6.90
2019-01-08T12:35:07.014Z,6.80
2019-01-08T12:37:36.002Z,6.60
2019-01-08T12:40:05.169Z,6.30
2019-01-08T12:42:34.414Z,6.00
2019-01-08T12:45:04.564Z,5.80
2019-01-08T12:47:33.747Z,5.70
2019-01-08T12:50:02.756Z,5.60
2019-01-08T12:52:31.816Z,5.40
2019-01-08T12:55:00.802Z,5.40
2019-01-08T12:57:29.861Z,5.40
2019-01-08T12:59:59.087Z,5.20
2019-01-08T13:02:28.237Z,5.20
2019-01-08T13:04:57.196Z,5.10
2019-01-08T13:07:26.208Z,5.20
2019-01-08T13:09:55.256Z,5.20
2019-01-08T13:12:24.187Z,5.40
2019-01-08T13:14:53.121Z,5.50
2019-01-08T13:17:22.243Z,5.70
2019-01-08T13:19:51.114Z,5.80
2019-01-08T13:22:20.088Z,6.00
2019-01-08T13:24:49.008Z,6.10
2019-01-08T13:27:17.976Z,6.10
2019-01-08T13:29:47.000Z,6.20
2019-01-08T13:32:23.130Z,6.20
2019-01-08T13:34:46.858Z,6.30
2019-01-08T13:37:15.956Z,6.40
2019-01-08T13:39:44.973Z,6.40
2019-01-08T13:42:14.020Z,6.30
2019-01-08T13:44:43.017Z,6.20
2019-01-08T13:47:12.136Z,6.10
2019-01-08T13:49:41.066Z,6.10
2019-01-08T13:52:10.028Z,6.60
2019-01-08T13:54:38.929Z,6.10
2019-01-08T13:57:07.866Z,6.20
2019-01-08T13:59:37.078Z,6.20
2019-01-08T14:02:06.104Z,6.40
2019-01-08T14:04:35.040Z,6.50
2019-01-08T14:07:04.616Z,6.50
2019-01-08T14:09:33.624Z,6.60
2019-01-08T14:12:03.063Z,6.50
2019-01-08T14:14:32.029Z,6.30
2019-01-08T14:17:02.449Z,6.20
2019-01-08T14:19:31.586Z,6.10
2019-01-08T14:22:00.680Z,6.00
2019-01-08T14:24:29.838Z,5.80
2019-01-08T14:26:59.304Z,5.70
2019-01-08T14:29:30.396Z,5.60
2019-01-08T14:31:59.511Z,5.50
2019-01-08T14:34:28.468Z,5.50
2019-01-08T14:36:57.525Z,5.50
2019-01-08T14:39:26.596Z,5.50
2019-01-08T14:41:55.698Z,5.50
2019-01-08T14:44:24.736Z,5.60
2019-01-08T14:46:53.764Z,5.60
2019-01-08T14:49:22.876Z,5.60
2019-01-08T14:51:51.932Z,5.50
2019-01-08T14:54:20.916Z,5.50
2019-01-08T14:56:49.912Z,5.40
2019-01-08T14:59:18.940Z,5.40
2019-01-08T15:01:47.948Z,5.30
2019-01-08T15:04:17.005Z,5.30
2019-01-08T15:06:46.025Z,5.30
2019-01-08T15:09:14.948Z,5.20
2019-01-08T15:11:44.461Z,5.30
2019-01-08T15:14:13.328Z,5.20
2019-01-08T15:16:43.221Z,5.20
2019-01-08T15:19:12.196Z,5.20
2019-01-08T15:21:41.451Z,5.10
2019-01-08T15:24:10.433Z,5.10
2019-01-08T15:26:39.380Z,5.20
2019-01-08T15:29:08.417Z,5.20
2019-01-08T15:31:37.384Z,5.10
2019-01-08T15:34:06.361Z,5.20
2019-01-08T15:36:35.405Z,5.10
2019-01-08T15:39:06.220Z,5.10
2019-01-08T15:41:35.181Z,5.00
2019-01-08T15:44:04.199Z,4.90
2019-01-08T15:46:33.196Z,5.00
2019-01-08T15:49:02.216Z,5.00
2019-01-08T15:51:31.212Z,5.10
2019-01-08T15:54:01.287Z,5.20
2019-01-08T15:56:30.245Z,5.20
2019-01-08T15:58:59.295Z,5.10
2019-01-08T16:01:28.382Z,5.30
2019-01-08T16:03:57.445Z,5.40
2019-01-08T16:06:26.389Z,5.40
2019-01-08T16:08:55.304Z,5.50
2019-01-08T16:11:24.301Z,5.60
2019-01-08T16:13:53.402Z,5.60
2019-01-08T16:16:22.663Z,5.70
2019-01-08T16:18:51.697Z,5.70
2019-01-08T16:21:20.772Z,5.70
2019-01-08T16:23:50.830Z,5.80
2019-01-08T16:26:19.828Z,5.80
2019-01-08T16:28:48.865Z,5.80
2019-01-08T16:31:17.857Z,5.80
2019-01-08T16:33:46.828Z,5.80
2019-01-08T16:36:15.945Z,5.80
2019-01-08T16:38:45.001Z,5.90
2019-01-08T16:41:13.976Z,5.90
2019-01-08T16:43:43.092Z,5.90
2019-01-08T16:46:12.127Z,5.80
2019-01-08T16:48:41.292Z,5.70
2019-01-08T16:51:10.222Z,5.80
2019-01-08T16:53:41.515Z,5.70
2019-01-08T16:56:10.200Z,5.70
2019-01-08T16:58:39.461Z,5.70
2019-01-08T17:01:08.629Z,5.60
2019-01-08T17:03:38.891Z,5.60
2019-01-08T17:06:08.113Z,5.60
2019-01-08T17:08:37.163Z,5.50
2019-01-08T17:11:06.232Z,5.50
2019-01-08T17:13:36.483Z,5.50
2019-01-08T17:16:05.679Z,5.50
2019-01-08T17:18:34.742Z,5.40
2019-01-08T17:21:03.892Z,5.40
2019-01-08T17:23:33.026Z,5.50
2019-01-08T17:26:04.107Z,5.50
2019-01-08T17:28:33.157Z,5.60
2019-01-08T17:31:02.206Z,5.60
2019-01-08T17:33:33.961Z,5.50
2019-01-08T17:36:01.916Z,5.50
2019-01-08T17:38:30.968Z,5.40
2019-01-08T17:40:59.910Z,5.40
2019-01-08T17:43:33.426Z,5.40
2019-01-08T17:45:59.897Z,5.30
2019-01-08T17:48:28.764Z,5.20
2019-01-08T17:50:57.826Z,5.10
2019-01-08T17:53:26.852Z,5.10
2019-01-08T17:55:55.970Z,5.00
2019-01-08T17:58:45.006Z,4.90
2019-01-08T18:01:17.388Z,4.70
2019-01-08T18:03:46.556Z,4.60
2019-01-08T18:06:15.592Z,4.50
2019-01-08T18:08:44.557Z,4.40
2019-01-08T18:11:13.590Z,4.30
2019-01-08T18:13:42.643Z,4.20
2019-01-08T18:16:11.553Z,4.20
2019-01-08T18:18:40.489Z,4.10
2019-01-08T18:21:10.413Z,4.10
2019-01-08T18:23:39.577Z,4.10
2019-01-08T18:26:08.513Z,4.20
2019-01-08T18:28:37.606Z,4.20
2019-01-08T18:31:07.017Z,4.20
2019-01-08T18:33:36.279Z,4.30
2019-01-08T18:36:05.397Z,4.40
2019-01-08T18:38:34.514Z,4.40
2019-01-08T18:41:03.668Z,4.50
2019-01-08T18:43:33.133Z,4.60
2019-01-08T18:46:02.308Z,4.60
2019-01-08T18:48:31.314Z,4.60
2019-01-08T18:51:00.704Z,4.60
2019-01-08T18:53:29.672Z,4.50
2019-01-08T18:55:58.729Z,4.50
2019-01-08T18:58:27.704Z,4.50
2019-01-08T19:00:56.996Z,4.60
2019-01-08T19:03:25.987Z,4.60
2019-01-08T19:05:55.228Z,4.50
2019-01-08T19:08:48.870Z,4.50
2019-01-08T19:11:17.945Z,4.60
2019-01-08T19:13:46.958Z,4.70
2019-01-08T19:20:15.100Z,4.70
2019-01-08T19:22:44.141Z,4.60
2019-01-08T19:25:14.827Z,4.70
2019-01-08T19:27:44.047Z,4.70
2019-01-08T19:30:13.085Z,4.60
2019-01-08T19:32:42.193Z,4.60
2019-01-08T19:35:11.271Z,4.40
2019-01-08T19:37:40.136Z,4.40
2019-01-08T19:40:10.389Z,4.30
2019-01-08T19:42:39.496Z,4.20
2019-01-08T19:45:09.014Z,4.20
2019-01-08T19:47:38.072Z,4.10
2019-01-08T19:50:07.968Z,4.20
2019-01-08T19:52:37.434Z,4.10
2019-01-08T19:55:07.107Z,4.10
2019-01-08T19:57:36.237Z,4.20
2019-01-08T20:00:06.005Z,4.20
2019-01-08T20:02:35.056Z,4.20
2019-01-08T20:05:04.142Z,4.30
2019-01-08T20:07:33.140Z,4.30
2019-01-08T20:10:02.173Z,4.30
2019-01-08T20:12:31.200Z,4.40
2019-01-08T20:15:00.282Z,4.50
2019-01-08T20:17:30.989Z,4.50
2019-01-08T20:20:00.282Z,4.50
2019-01-08T20:22:29.382Z,4.60
2019-01-08T20:24:58.511Z,4.60
2019-01-08T20:27:27.609Z,4.70
2019-01-08T20:29:56.610Z,4.70
2019-01-08T20:32:25.609Z,4.60
2019-01-08T20:34:54.769Z,4.70
2019-01-08T20:37:23.828Z,4.70
2019-01-08T20:39:52.945Z,4.70
2019-01-08T20:42:21.991Z,4.70
2019-01-08T20:44:50.936Z,4.70
2019-01-08T20:47:20.136Z,4.70
2019-01-08T20:49:50.326Z,4.70
2019-01-08T20:52:19.423Z,4.70
2019-01-08T20:54:48.587Z,4.70
2019-01-08T20:57:17.634Z,4.70
2019-01-08T20:59:46.653Z,4.70
2019-01-08T21:03:09.892Z,4.70
2019-01-08T21:05:38.900Z,4.50
2019-01-08T21:08:08.192Z,4.70
2019-01-08T21:10:37.347Z,4.60
2019-01-08T21:13:07.598Z,4.60
2019-01-08T21:15:37.572Z,4.60
2019-01-08T21:18:06.664Z,4.60
2019-01-08T21:20:35.728Z,4.60
2019-01-08T21:23:04.884Z,4.60
2019-01-08T21:25:34.987Z,4.60
2019-01-08T21:28:04.117Z,4.60
2019-01-08T21:30:33.229Z,4.50
2019-01-08T21:33:02.202Z,4.50
2019-01-08T21:35:31.076Z,4.50
2019-01-08T21:38:00.077Z,4.50
2019-01-08T21:40:28.940Z,4.50
2019-01-08T21:42:57.913Z,4.50
2019-01-08T21:45:26.978Z,4.50
2019-01-08T21:47:56.017Z,4.50
2019-01-08T21:50:25.098Z,4.50
2019-01-08T21:52:54.284Z,4.50
2019-01-08T21:55:24.208Z,4.40
2019-01-08T21:57:53.260Z,4.40
2019-01-08T22:00:22.449Z,4.50
2019-01-08T22:02:51.569Z,4.50
2019-01-08T22:05:20.640Z,4.50
2019-01-08T22:07:49.798Z,4.50
2019-01-08T22:10:18.872Z,4.50
2019-01-08T22:12:47.797Z,4.60
2019-01-08T22:15:17.006Z,4.60
2019-01-08T22:17:46.200Z,4.60
2019-01-08T22:20:15.200Z,4.70
2019-01-08T22:22:52.501Z,4.70
2019-01-08T22:25:16.140Z,4.60
2019-01-08T22:27:45.570Z,4.70
2019-01-08T22:30:29.527Z,4.70
2019-01-08T22:32:59.127Z,4.60
2019-01-08T22:35:28.037Z,4.60
2019-01-08T22:37:56.908Z,4.60
2019-01-08T22:40:26.014Z,4.60
2019-01-08T22:42:55.190Z,4.60
2019-01-08T22:45:24.175Z,4.50
2019-01-08T22:47:53.118Z,4.50
2019-01-08T22:50:22.316Z,4.50
2019-01-08T22:56:19.721Z,4.50
2019-01-08T22:58:48.796Z,4.40
2019-01-08T23:01:22.499Z,4.30
2019-01-08T23:03:51.505Z,4.30
2019-01-08T23:06:20.697Z,4.40
2019-01-08T23:08:49.840Z,4.70
2019-01-08T23:11:18.887Z,4.40
2019-01-08T23:13:47.917Z,4.40
2019-01-08T23:16:16.971Z,4.40
2019-01-08T23:18:46.060Z,4.40
2019-01-08T23:21:15.074Z,4.40
2019-01-08T23:23:44.164Z,4.40
2019-01-08T23:26:13.173Z,4.40
2019-01-08T23:28:42.244Z,4.40
2019-01-08T23:31:11.211Z,4.40
2019-01-08T23:33:40.334Z,4.50
2019-01-08T23:36:09.435Z,4.50
2019-01-08T23:38:38.536Z,4.40
2019-01-08T23:41:07.654Z,4.50
2019-01-08T23:43:36.772Z,4.40
2019-01-08T23:46:05.889Z,4.40
2019-01-08T23:48:34.916Z,4.40
2019-01-08T23:51:04.056Z,4.40
2019-01-08T23:53:43.024Z,4.40
2019-01-08T23:56:12.150Z,4.40
2019-01-08T23:58:41.158Z,4.30
